createdAt,value
2023-04-10T00:00:39.865Z,6.02
2023-04-10T00:05:56.440Z,5.91
2023-04-10T00:11:00.225Z,5.85
2023-04-10T00:16:04.674Z,5.83
2023-04-10T00:21:08.529Z,5.76
2023-04-10T00:26:12.674Z,5.68
2023-04-10T00:31:17.873Z,5.63
2023-04-10T00:36:21.850Z,5.61
2023-04-10T00:41:26.413Z,5.60
2023-04-10T00:46:31.987Z,5.56
2023-04-10T00:51:37.608Z,5.50
2023-04-10T00:56:41.601Z,5.44
2023-04-10T01:01:45.714Z,5.38
2023-04-10T01:06:58.886Z,5.36
2023-04-10T01:12:30.839Z,5.37
2023-04-10T01:17:59.037Z,5.35
2023-04-10T01:23:31.136Z,5.28
2023-04-10T01:28:56.572Z,5.25
2023-04-10T01:34:06.639Z,5.22
2023-04-10T01:39:10.973Z,5.20
2023-04-10T01:44:16.537Z,5.20
2023-04-10T01:49:21.246Z,5.17
2023-04-10T01:54:27.965Z,5.11
2023-04-10T01:59:32.406Z,5.05
2023-04-10T02:04:36.417Z,4.97
2023-04-10T02:09:59.516Z,4.90
2023-04-10T02:15:06.739Z,4.87
2023-04-10T02:20:11.454Z,4.87
2023-04-10T02:25:17.018Z,4.88
2023-04-10T02:30:21.043Z,4.89
2023-04-10T02:35:24.937Z,4.88
2023-04-10T02:40:28.795Z,4.85
2023-04-10T02:45:47.059Z,4.82
2023-04-10T02:50:59.468Z,4.79
2023-04-10T02:56:06.974Z,4.79
2023-04-10T03:01:11.160Z,4.80
2023-04-10T03:06:21.267Z,4.83
2023-04-10T03:11:25.167Z,4.88
2023-04-10T03:16:28.978Z,4.94
2023-04-10T03:21:33.315Z,5.05
2023-04-10T03:26:37.097Z,5.16
2023-04-10T03:31:40.946Z,5.24
2023-04-10T03:36:45.316Z,5.32
2023-04-10T03:41:49.487Z,5.38
2023-04-10T03:46:54.124Z,5.40
2023-04-10T03:51:58.447Z,5.37
2023-04-10T03:57:02.392Z,5.35
2023-04-10T04:02:07.868Z,5.34
2023-04-10T04:07:14.724Z,5.34
2023-04-10T04:12:44.785Z,5.35
2023-04-10T04:18:04.312Z,5.38
2023-04-10T04:23:18.122Z,5.40
2023-04-10T04:28:42.180Z,5.44
2023-04-10T04:34:06.167Z,5.51
2023-04-10T04:39:30.122Z,5.58
2023-04-10T04:44:52.582Z,5.67
2023-04-10T04:50:19.275Z,5.76
2023-04-10T04:55:55.146Z,5.86
2023-04-10T05:01:18.023Z,5.99
2023-04-10T05:06:31.917Z,6.13
2023-04-10T05:11:51.674Z,6.26
2023-04-10T05:17:18.770Z,6.37
2023-04-10T05:22:39.269Z,6.44
2023-04-10T05:27:56.731Z,6.49
2023-04-10T05:33:16.460Z,6.56
2023-04-10T05:38:40.549Z,6.69
2023-04-10T05:43:53.103Z,6.75
2023-04-10T05:49:23.409Z,6.77
2023-04-10T05:54:58.995Z,6.90
2023-04-10T06:00:18.522Z,7.02
2023-04-10T06:05:49.535Z,7.09
2023-04-10T06:10:55.786Z,7.03
2023-04-10T06:16:00.282Z,6.92
2023-04-10T06:21:05.916Z,6.86
2023-04-10T06:26:12.553Z,6.82
2023-04-10T06:31:18.990Z,6.83
2023-04-10T06:36:24.953Z,6.84
2023-04-10T06:41:34.656Z,6.92
2023-04-10T06:46:56.031Z,7.12
2023-04-10T06:52:00.087Z,7.38
2023-04-10T06:57:04.327Z,7.58
2023-04-10T07:02:08.558Z,7.62
2023-04-10T07:07:13.774Z,7.75
2023-04-10T07:12:17.561Z,7.86
2023-04-10T07:17:22.246Z,8.17
2023-04-10T07:22:29.693Z,8.39
2023-04-10T07:27:34.326Z,8.52
2023-04-10T07:32:47.643Z,8.77
2023-04-10T07:37:58.362Z,8.95
2023-04-10T07:43:05.815Z,9.04
2023-04-10T07:48:09.718Z,9.23
2023-04-10T07:53:13.622Z,9.38
2023-04-10T07:58:18.030Z,9.33
2023-04-10T08:03:21.864Z,9.35
2023-04-10T08:08:25.680Z,9.50
2023-04-10T08:13:29.425Z,9.53
2023-04-10T08:18:33.133Z,9.43
2023-04-10T08:23:36.868Z,9.32
2023-04-10T08:28:41.840Z,9.39
2023-04-10T08:33:45.626Z,9.52
2023-04-10T08:38:49.385Z,9.73
2023-04-10T08:43:53.567Z,9.80
2023-04-10T08:49:05.842Z,9.85
2023-04-10T08:54:20.593Z,10.05
2023-04-10T08:59:24.621Z,10.31
2023-04-10T09:04:28.559Z,10.47
2023-04-10T09:09:35.074Z,10.56
2023-04-10T09:14:38.836Z,10.57
2023-04-10T09:19:43.753Z,10.78
2023-04-10T09:24:48.749Z,11.00
2023-04-10T09:29:52.862Z,11.08
2023-04-10T09:34:59.686Z,11.18
2023-04-10T09:40:04.406Z,11.33
2023-04-10T09:45:08.311Z,11.51
2023-04-10T09:50:12.799Z,11.56
2023-04-10T09:55:17.610Z,11.57
2023-04-10T10:00:21.436Z,11.60
2023-04-10T10:05:30.817Z,11.99
2023-04-10T10:10:35.732Z,12.39
2023-04-10T10:15:51.454Z,12.68
2023-04-10T10:20:55.580Z,12.72
2023-04-10T10:26:02.466Z,13.00
2023-04-10T10:31:08.572Z,13.63
2023-04-10T10:36:14.229Z,14.13
2023-04-10T10:41:30.295Z,14.42
2023-04-10T10:46:44.324Z,14.40
2023-04-10T10:51:49.945Z,14.18
2023-04-10T10:56:53.659Z,13.99
2023-04-10T11:02:18.336Z,13.93
2023-04-10T11:07:22.540Z,13.88
2023-04-10T11:12:26.651Z,13.77
2023-04-10T11:17:48.060Z,13.76
2023-04-10T11:23:14.340Z,13.63
2023-04-10T11:28:37.580Z,13.56
2023-04-10T11:33:41.815Z,13.63
2023-04-10T11:39:02.803Z,13.79
2023-04-10T11:44:12.251Z,14.02
2023-04-10T11:49:24.320Z,14.15
2023-04-10T11:54:29.556Z,14.40
2023-04-10T11:59:34.618Z,14.62
2023-04-10T12:04:38.586Z,14.86
2023-04-10T12:09:43.086Z,15.09
2023-04-10T12:14:47.060Z,15.33
2023-04-10T12:19:51.010Z,15.50
2023-04-10T12:24:54.754Z,15.62
2023-04-10T12:29:59.261Z,15.73
2023-04-10T12:35:02.974Z,15.55
2023-04-10T12:40:07.969Z,15.48
2023-04-10T12:45:14.295Z,15.77
2023-04-10T12:50:19.275Z,15.86
2023-04-10T12:55:22.975Z,15.62
2023-04-10T13:00:26.779Z,15.40
2023-04-10T13:05:30.687Z,15.24
2023-04-10T13:10:34.494Z,15.14
2023-04-10T13:15:38.263Z,15.57
2023-04-10T13:20:42.221Z,16.22
2023-04-10T13:25:45.867Z,16.73
2023-04-10T13:30:49.566Z,17.09
2023-04-10T13:35:53.336Z,17.48
2023-04-10T13:40:57.145Z,17.66
2023-04-10T13:46:00.893Z,17.95
2023-04-10T13:51:04.820Z,18.01
2023-04-10T13:56:09.448Z,17.89
2023-04-10T14:01:13.876Z,17.80
2023-04-10T14:06:17.846Z,17.60
2023-04-10T14:11:22.258Z,17.40
2023-04-10T14:16:26.081Z,17.24
2023-04-10T14:21:29.826Z,17.10
2023-04-10T14:26:33.460Z,17.03
2023-04-10T14:31:44.282Z,16.99
2023-04-10T14:36:59.130Z,16.85
2023-04-10T14:42:03.207Z,16.71
2023-04-10T14:47:07.005Z,16.60
2023-04-10T14:52:10.906Z,16.53
2023-04-10T14:57:16.073Z,16.36
2023-04-10T15:02:19.932Z,16.28
2023-04-10T15:07:28.685Z,16.28
2023-04-10T15:12:32.378Z,16.29
2023-04-10T15:17:36.212Z,16.35
2023-04-10T15:22:42.869Z,16.34
2023-04-10T15:27:46.692Z,16.25
2023-04-10T15:32:50.544Z,16.18
2023-04-10T15:37:54.490Z,16.07
2023-04-10T15:42:58.791Z,15.94
2023-04-10T15:48:04.834Z,15.88
2023-04-10T15:53:09.022Z,15.82
2023-04-10T15:58:12.754Z,15.67
2023-04-10T16:03:16.863Z,15.54
2023-04-10T16:08:21.409Z,15.46
2023-04-10T16:13:26.059Z,15.40
2023-04-10T16:18:29.886Z,15.37
2023-04-10T16:23:33.726Z,15.28
2023-04-10T16:28:37.487Z,15.17
2023-04-10T16:33:42.495Z,15.03
2023-04-10T16:38:57.693Z,14.93
2023-04-10T16:44:07.437Z,14.78
2023-04-10T16:49:11.293Z,14.78
2023-04-10T16:54:15.663Z,15.66
2023-04-10T16:59:19.793Z,16.55
2023-04-10T17:04:23.688Z,16.53
2023-04-10T17:09:28.060Z,16.25
2023-04-10T17:14:37.491Z,16.00
2023-04-10T17:19:58.456Z,15.62
2023-04-10T17:25:15.657Z,14.89
2023-04-10T17:30:22.709Z,14.17
2023-04-10T17:35:26.769Z,13.61
2023-04-10T17:40:32.766Z,13.05
2023-04-10T17:45:40.974Z,12.50
2023-04-10T17:50:45.197Z,12.03
2023-04-10T17:55:49.444Z,11.63
2023-04-10T18:00:53.722Z,11.29
2023-04-10T18:05:57.545Z,11.00
2023-04-10T18:11:02.509Z,10.77
2023-04-10T18:16:07.607Z,10.53
2023-04-10T18:21:12.156Z,10.29
2023-04-10T18:26:16.567Z,10.12
2023-04-10T18:31:20.792Z,10.02
2023-04-10T18:36:26.694Z,9.94
2023-04-10T18:41:31.271Z,9.84
2023-04-10T18:46:35.616Z,9.73
2023-04-10T18:51:40.824Z,9.59
2023-04-10T18:56:44.990Z,9.45
2023-04-10T19:01:49.799Z,9.29
2023-04-10T19:06:54.823Z,9.04
2023-04-10T19:12:00.009Z,8.85
2023-04-10T19:17:06.480Z,8.77
2023-04-10T19:22:10.616Z,8.69
2023-04-10T19:27:14.710Z,8.61
2023-04-10T19:32:19.886Z,8.60
2023-04-10T19:37:26.742Z,8.59
2023-04-10T19:42:31.515Z,8.53
2023-04-10T19:47:35.464Z,8.46
2023-04-10T19:52:39.112Z,8.34
2023-04-10T19:57:48.721Z,8.23
2023-04-10T20:02:57.731Z,8.10
2023-04-10T20:08:04.077Z,7.98
2023-04-10T20:13:11.355Z,7.85
2023-04-10T20:18:18.225Z,7.73
2023-04-10T20:23:22.022Z,7.65
2023-04-10T20:28:25.874Z,7.58
2023-04-10T20:33:29.796Z,7.50
2023-04-10T20:38:35.815Z,7.50
2023-04-10T20:43:40.521Z,7.50
2023-04-10T20:48:48.335Z,7.47
2023-04-10T20:54:02.106Z,7.43
2023-04-10T20:59:18.140Z,7.42
2023-04-10T21:04:23.711Z,7.36
2023-04-10T21:09:27.744Z,7.31
2023-04-10T21:14:31.568Z,7.25
2023-04-10T21:19:35.478Z,7.21
2023-04-10T21:24:40.650Z,7.21
2023-04-10T21:29:45.548Z,7.16
2023-04-10T21:34:51.517Z,7.11
2023-04-10T21:40:00.757Z,7.05
2023-04-10T21:45:07.452Z,6.98
2023-04-10T21:50:14.157Z,6.95
2023-04-10T21:55:19.829Z,6.89
2023-04-10T22:00:24.477Z,6.79
2023-04-10T22:05:28.377Z,6.66
2023-04-10T22:10:32.184Z,6.56
2023-04-10T22:15:37.143Z,6.49
2023-04-10T22:20:41.433Z,6.44
2023-04-10T22:25:45.418Z,6.50
2023-04-10T22:30:49.232Z,6.54
2023-04-10T22:35:54.121Z,6.57
2023-04-10T22:40:58.104Z,6.66
2023-04-10T22:46:02.130Z,6.75
2023-04-10T22:51:13.853Z,6.76
2023-04-10T22:56:19.586Z,6.70
2023-04-10T23:01:23.457Z,6.59
2023-04-10T23:06:27.633Z,6.50
2023-04-10T23:11:31.397Z,6.44
2023-04-10T23:16:35.219Z,6.39
2023-04-10T23:21:39.016Z,6.34
2023-04-10T23:26:42.859Z,6.30
2023-04-10T23:31:46.555Z,6.27
2023-04-10T23:36:50.438Z,6.24
2023-04-10T23:41:54.192Z,6.23
2023-04-10T23:46:58.034Z,6.21
2023-04-10T23:52:01.618Z,6.18
2023-04-10T23:57:05.505Z,6.16
